createdAt,value
2018-06-01T00:00:29.267Z,15.07
2018-06-01T00:02:57.645Z,16.03
2018-06-01T00:05:25.999Z,18.20
2018-06-01T00:08:20.366Z,15.03
2018-06-01T00:10:48.685Z,19.87
2018-06-01T00:13:17.065Z,15.53
2018-06-01T00:15:45.444Z,15.60
2018-06-01T00:18:13.797Z,15.30
2018-06-01T00:20:42.507Z,17.17
2018-06-01T00:23:10.884Z,14.97
2018-06-01T00:25:39.260Z,15.73
2018-06-01T00:28:07.640Z,18.70
2018-06-01T00:30:36.047Z,17.97
2018-06-01T00:33:04.398Z,15.97
2018-06-01T00:35:32.746Z,18.43
2018-06-01T00:38:01.126Z,18.77
2018-06-01T00:40:29.607Z,22.30
2018-06-01T00:42:57.910Z,20.40
2018-06-01T00:45:26.259Z,22.03
2018-06-01T00:47:54.769Z,22.23
2018-06-01T00:50:23.002Z,25.87
2018-06-01T00:52:51.322Z,26.93
2018-06-01T00:55:23.420Z,24.97
2018-06-01T00:57:51.741Z,19.10
2018-06-01T01:00:20.044Z,20.97
2018-06-01T01:02:48.278Z,15.40
2018-06-01T01:05:16.587Z,25.80
2018-06-01T01:07:44.844Z,23.30
2018-06-01T01:10:13.216Z,31.70
2018-06-01T01:12:41.596Z,28.73
2018-06-01T01:15:10.003Z,18.70
2018-06-01T01:17:38.352Z,17.27
2018-06-01T01:20:06.573Z,18.50
2018-06-01T01:22:34.893Z,15.43
2018-06-01T01:25:03.392Z,19.27
2018-06-01T01:27:31.894Z,18.17
2018-06-01T01:30:00.166Z,15.03
2018-06-01T01:32:28.540Z,12.33
2018-06-01T01:34:57.022Z,14.33
2018-06-01T01:37:30.401Z,14.97
2018-06-01T01:39:58.651Z,19.80
2018-06-01T01:42:26.973Z,13.20
2018-06-01T01:44:55.227Z,16.13
2018-06-01T01:47:23.479Z,14.93
2018-06-01T01:49:52.614Z,14.40
2018-06-01T01:52:21.100Z,13.13
2018-06-01T01:54:49.478Z,18.40
2018-06-01T01:57:17.749Z,17.73
2018-06-01T01:59:46.027Z,13.80
2018-06-01T02:02:14.262Z,14.73
2018-06-01T02:04:42.551Z,15.40
2018-06-01T02:07:10.958Z,14.47
2018-06-01T02:09:39.337Z,15.97
2018-06-01T02:12:07.713Z,13.67
2018-06-01T02:14:35.962Z,16.70
2018-06-01T02:17:04.368Z,14.03
2018-06-01T02:19:32.745Z,12.17
2018-06-01T02:22:01.097Z,16.40
2018-06-01T02:24:29.402Z,16.47
2018-06-01T02:26:57.678Z,15.07
2018-06-01T02:29:26.053Z,16.47
2018-06-01T02:31:54.531Z,13.37
2018-06-01T02:34:23.015Z,14.97
2018-06-01T02:36:51.496Z,14.07
2018-06-01T02:39:19.902Z,17.97
2018-06-01T02:41:48.336Z,15.07
2018-06-01T02:44:16.634Z,13.00
2018-06-01T02:46:44.889Z,11.80
2018-06-01T02:49:13.285Z,17.93
2018-06-01T02:51:41.551Z,14.80
2018-06-01T02:54:10.038Z,13.93
2018-06-01T02:56:38.362Z,15.43
2018-06-01T02:59:06.707Z,13.43
2018-06-01T03:01:35.043Z,14.10
2018-06-01T03:04:03.347Z,12.87
2018-06-01T03:06:37.976Z,15.33
2018-06-01T03:09:06.353Z,16.03
2018-06-01T03:11:34.706Z,12.80
2018-06-01T03:14:03.214Z,14.23
2018-06-01T03:16:31.464Z,15.53
2018-06-01T03:18:59.739Z,14.13
2018-06-01T03:21:28.035Z,20.67
2018-06-01T03:23:56.305Z,11.80
2018-06-01T03:26:24.795Z,13.80
2018-06-01T03:28:53.025Z,17.77
2018-06-01T03:31:21.246Z,15.37
2018-06-01T03:33:49.927Z,24.23
2018-06-01T03:36:18.306Z,18.30
2018-06-01T03:38:46.683Z,22.97
2018-06-01T03:41:15.062Z,17.13
2018-06-01T03:43:43.441Z,15.77
2018-06-01T03:46:11.816Z,19.17
2018-06-01T03:48:40.193Z,17.87
2018-06-01T03:51:08.575Z,21.53
2018-06-01T03:53:36.825Z,16.80
2018-06-01T03:56:05.122Z,15.43
2018-06-01T03:58:33.347Z,13.70
2018-06-01T04:01:01.648Z,18.67
2018-06-01T04:03:29.927Z,16.27
2018-06-01T04:05:58.229Z,16.07
2018-06-01T04:08:26.503Z,14.73
2018-06-01T04:10:54.846Z,13.93
2018-06-01T04:13:23.171Z,20.27
2018-06-01T04:15:51.408Z,17.70
2018-06-01T04:18:19.695Z,13.83
2018-06-01T04:20:48.086Z,16.50
2018-06-01T04:23:16.466Z,21.17
2018-06-01T04:25:44.739Z,18.83
2018-06-01T04:28:12.987Z,17.80
2018-06-01T04:30:41.294Z,21.53
2018-06-01T04:33:09.669Z,19.70
2018-06-01T04:35:38.227Z,19.43
2018-06-01T04:38:06.531Z,22.33
2018-06-01T04:40:34.945Z,25.90
2018-06-01T04:43:03.288Z,19.67
2018-06-01T04:45:31.660Z,26.70
2018-06-01T04:48:00.249Z,20.70
2018-06-01T04:50:28.495Z,29.23
2018-06-01T04:52:56.803Z,26.63
2018-06-01T04:55:25.071Z,36.23
2018-06-01T04:57:53.425Z,39.17
2018-06-01T05:00:21.725Z,28.70
2018-06-01T05:02:50.110Z,39.10
2018-06-01T05:05:18.589Z,38.83
2018-06-01T05:07:46.941Z,39.93
2018-06-01T05:10:15.343Z,33.17
2018-06-01T05:12:43.616Z,34.10
2018-06-01T05:15:11.867Z,29.57
2018-06-01T05:17:40.168Z,31.57
2018-06-01T05:20:08.515Z,32.67
2018-06-01T05:22:36.853Z,26.93
2018-06-01T05:25:05.179Z,30.67
2018-06-01T05:27:33.581Z,37.43
2018-06-01T05:30:01.960Z,36.17
2018-06-01T05:32:30.310Z,34.47
2018-06-01T05:34:58.590Z,44.43
2018-06-01T05:37:27.030Z,42.07
2018-06-01T05:39:55.340Z,30.00
2018-06-01T05:42:23.646Z,35.77
2018-06-01T05:44:52.002Z,31.37
2018-06-01T05:47:20.265Z,29.23
2018-06-01T05:49:48.674Z,25.63
2018-06-01T05:52:17.154Z,25.70
2018-06-01T05:54:45.410Z,28.73
2018-06-01T05:57:13.812Z,20.27
2018-06-01T05:59:42.116Z,22.47
2018-06-01T06:02:10.447Z,22.70
2018-06-01T06:04:38.757Z,29.40
2018-06-01T06:07:07.120Z,22.97
2018-06-01T06:09:35.600Z,30.27
2018-06-01T06:12:03.872Z,32.10
2018-06-01T06:14:32.253Z,36.60
2018-06-01T06:17:00.504Z,33.70
2018-06-01T06:19:28.801Z,27.07
2018-06-01T06:21:57.194Z,25.30
2018-06-01T06:24:25.663Z,30.27
2018-06-01T06:26:53.887Z,28.33
2018-06-01T06:29:22.215Z,27.43
2018-06-01T06:31:50.465Z,26.33
2018-06-01T06:34:18.693Z,23.23
2018-06-01T06:36:46.922Z,21.23
2018-06-01T06:39:15.221Z,20.20
2018-06-01T06:41:43.678Z,20.00
2018-06-01T06:44:12.160Z,18.77
2018-06-01T06:46:41.072Z,20.63
2018-06-01T06:49:09.452Z,15.87
2018-06-01T06:51:37.822Z,20.03
2018-06-01T06:54:06.199Z,16.63
2018-06-01T06:56:34.431Z,20.63
2018-06-01T06:59:02.715Z,27.13
2018-06-01T07:01:31.134Z,21.73
2018-06-01T07:03:59.363Z,16.43
2018-06-01T07:06:27.695Z,13.57
2018-06-01T07:08:55.957Z,14.83
2018-06-01T07:11:24.280Z,17.10
2018-06-01T07:13:52.610Z,14.37
2018-06-01T07:16:20.985Z,19.47
2018-06-01T07:18:49.371Z,14.73
2018-06-01T07:21:17.952Z,22.93
2018-06-01T07:23:46.301Z,15.50
2018-06-01T07:26:14.601Z,18.60
2018-06-01T07:28:42.812Z,16.37
2018-06-01T07:31:11.301Z,29.40
2018-06-01T07:33:39.633Z,18.17
2018-06-01T07:36:07.910Z,12.83
2018-06-01T07:38:36.184Z,14.03
2018-06-01T07:41:04.530Z,16.43
2018-06-01T07:43:32.771Z,16.83
2018-06-01T07:46:01.117Z,15.17
2018-06-01T07:48:29.497Z,13.03
2018-06-01T07:50:57.870Z,18.27
2018-06-01T07:53:26.105Z,16.67
2018-06-01T07:55:54.422Z,16.07
2018-06-01T07:58:22.799Z,12.13
2018-06-01T08:00:51.183Z,11.60
2018-06-01T08:03:19.458Z,15.87
2018-06-01T08:05:47.807Z,15.47
2018-06-01T08:08:16.108Z,17.60
2018-06-01T08:10:44.467Z,10.43
2018-06-01T08:13:12.663Z,9.20
2018-06-01T08:15:41.141Z,8.20
2018-06-01T08:18:09.364Z,12.03
2018-06-01T08:20:37.691Z,10.47
2018-06-01T08:23:05.968Z,8.70
2018-06-01T08:25:34.431Z,10.40
2018-06-01T08:28:02.700Z,10.53
2018-06-01T08:30:30.957Z,10.53
2018-06-01T08:32:59.382Z,8.10
2018-06-01T08:35:27.861Z,12.33
2018-06-01T08:37:56.129Z,10.63
2018-06-01T08:40:24.373Z,12.63
2018-06-01T08:42:52.683Z,10.73
2018-06-01T08:45:20.940Z,9.87
2018-06-01T08:47:49.346Z,10.60
2018-06-01T08:50:17.923Z,11.30
2018-06-01T08:52:46.172Z,13.40
2018-06-01T08:55:14.405Z,14.77
2018-06-01T08:57:42.824Z,13.07
2018-06-01T09:00:11.135Z,12.47
2018-06-01T09:02:39.370Z,10.03
2018-06-01T09:05:07.718Z,10.47
2018-06-01T09:07:36.060Z,10.90
2018-06-01T09:10:04.463Z,7.87
2018-06-01T09:12:32.816Z,9.13
2018-06-01T09:15:01.205Z,8.97
2018-06-01T09:17:29.674Z,11.43
2018-06-01T09:19:57.946Z,11.33
2018-06-01T09:22:26.432Z,12.17
2018-06-01T09:24:54.700Z,12.23
2018-06-01T09:27:22.956Z,10.17
2018-06-01T09:29:51.176Z,11.60
2018-06-01T09:32:19.467Z,10.67
2018-06-01T09:34:47.784Z,7.47
2018-06-01T09:37:16.083Z,9.50
2018-06-01T09:39:44.437Z,11.67
2018-06-01T09:42:13.048Z,11.07
2018-06-01T09:44:41.264Z,9.07
2018-06-01T09:47:09.524Z,13.50
2018-06-01T09:49:38.182Z,9.17
2018-06-01T09:52:06.764Z,11.07
2018-06-01T09:54:35.044Z,11.47
2018-06-01T09:57:03.526Z,10.70
2018-06-01T09:59:31.794Z,12.27
2018-06-01T10:02:00.016Z,13.30
2018-06-01T10:04:28.255Z,11.63
2018-06-01T10:06:56.517Z,12.53
2018-06-01T10:09:24.740Z,9.83
2018-06-01T10:11:53.047Z,13.10
2018-06-01T10:14:21.311Z,9.60
2018-06-01T10:16:49.555Z,8.73
2018-06-01T10:19:17.875Z,13.70
2018-06-01T10:21:46.277Z,10.27
2018-06-01T10:24:14.499Z,11.20
2018-06-01T10:26:42.826Z,14.43
2018-06-01T10:29:11.056Z,12.43
2018-06-01T10:31:39.375Z,14.13
2018-06-01T10:34:07.655Z,23.37
2018-06-01T10:36:36.036Z,12.70
2018-06-01T10:39:04.482Z,16.50
2018-06-01T10:41:32.716Z,9.43
2018-06-01T10:44:00.960Z,13.77
2018-06-01T10:46:29.235Z,11.53
2018-06-01T10:48:57.559Z,12.03
2018-06-01T10:51:25.892Z,15.07
2018-06-01T10:53:54.472Z,13.03
2018-06-01T10:56:23.036Z,12.33
2018-06-01T10:58:51.281Z,12.50
2018-06-01T11:01:19.610Z,11.07
2018-06-01T11:03:47.959Z,10.43
2018-06-01T11:06:16.234Z,15.73
2018-06-01T11:08:44.571Z,16.17
2018-06-01T11:11:12.831Z,17.40
2018-06-01T11:13:41.208Z,17.83
2018-06-01T11:16:09.570Z,18.10
2018-06-01T11:18:38.052Z,10.23
2018-06-01T11:21:06.405Z,12.33
2018-06-01T11:23:34.678Z,9.10
2018-06-01T11:26:02.978Z,11.57
2018-06-01T11:28:31.359Z,13.13
2018-06-01T11:30:59.838Z,12.20
2018-06-01T11:33:28.111Z,11.50
2018-06-01T11:35:56.501Z,10.53
2018-06-01T11:38:24.930Z,17.63
2018-06-01T11:40:53.251Z,10.90
2018-06-01T11:43:21.450Z,11.20
2018-06-01T11:45:49.878Z,10.70
2018-06-01T11:48:18.179Z,11.33
2018-06-01T11:50:46.455Z,11.77
2018-06-01T11:53:14.688Z,12.87
2018-06-01T11:55:43.107Z,13.13
2018-06-01T11:58:11.384Z,11.43
2018-06-01T12:00:39.867Z,11.43
2018-06-01T12:03:08.362Z,11.10
2018-06-01T12:05:36.722Z,15.93
2018-06-01T12:08:05.187Z,12.90
2018-06-01T12:10:33.458Z,10.40
2018-06-01T12:13:01.698Z,10.93
2018-06-01T12:15:30.003Z,9.87
2018-06-01T12:17:58.407Z,8.97
2018-06-01T12:20:26.670Z,10.67
2018-06-01T12:22:55.095Z,13.60
2018-06-01T12:25:23.438Z,15.70
2018-06-01T12:27:51.682Z,11.00
2018-06-01T12:30:20.092Z,11.77
2018-06-01T12:32:48.472Z,12.17
2018-06-01T12:35:16.722Z,12.10
2018-06-01T12:37:45.127Z,12.23
2018-06-01T12:40:13.376Z,14.33
2018-06-01T12:42:41.676Z,7.87
2018-06-01T12:45:10.160Z,12.53
2018-06-01T12:47:38.432Z,9.43
2018-06-01T12:50:06.680Z,11.77
2018-06-01T12:52:35.092Z,8.13
2018-06-01T12:55:03.366Z,8.10
2018-06-01T12:57:31.846Z,10.33
2018-06-01T13:00:00.166Z,14.17
2018-06-01T13:02:28.702Z,14.67
2018-06-01T13:04:56.951Z,11.83
2018-06-01T13:07:25.228Z,12.43
2018-06-01T13:09:53.833Z,10.30
2018-06-01T13:12:22.088Z,11.80
2018-06-01T13:14:50.489Z,13.70
2018-06-01T13:17:18.871Z,13.53
2018-06-01T13:19:47.246Z,14.87
2018-06-01T13:22:15.704Z,14.40
2018-06-01T13:24:44.003Z,13.43
2018-06-01T13:27:12.287Z,16.27
2018-06-01T13:29:40.761Z,14.80
2018-06-01T13:32:09.112Z,18.70
2018-06-01T13:34:37.515Z,13.67
2018-06-01T13:37:05.888Z,12.63
2018-06-01T13:39:34.276Z,13.43
2018-06-01T13:42:02.502Z,16.20
2018-06-01T13:44:30.824Z,7.83
2018-06-01T13:46:59.178Z,11.93
2018-06-01T13:49:27.550Z,12.73
2018-06-01T13:51:55.933Z,10.40
2018-06-01T13:54:24.293Z,11.77
2018-06-01T13:56:52.614Z,15.50
2018-06-01T13:59:20.923Z,14.03
2018-06-01T14:01:49.241Z,14.53
2018-06-01T14:04:17.506Z,11.03
2018-06-01T14:06:45.800Z,11.37
2018-06-01T14:09:14.093Z,9.13
2018-06-01T14:11:42.681Z,14.30
2018-06-01T14:14:11.032Z,14.53
2018-06-01T14:16:39.503Z,10.40
2018-06-01T14:19:07.915Z,10.63
2018-06-01T14:21:36.164Z,12.40
2018-06-01T14:24:05.491Z,9.87
2018-06-01T14:26:33.909Z,14.10
2018-06-01T14:29:02.244Z,14.30
2018-06-01T14:31:30.504Z,15.43
2018-06-01T14:33:58.898Z,12.80
2018-06-01T14:36:27.131Z,14.30
2018-06-01T14:38:55.448Z,11.23
2018-06-01T14:41:23.706Z,10.63
2018-06-01T14:43:51.910Z,12.53
2018-06-01T14:46:20.175Z,9.40
2018-06-01T14:48:48.649Z,14.73
2018-06-01T14:51:16.930Z,11.23
2018-06-01T14:53:45.206Z,13.80
2018-06-01T14:56:13.415Z,10.10
2018-06-01T14:58:41.655Z,14.40
2018-06-01T15:01:09.930Z,11.70
2018-06-01T15:03:38.212Z,13.27
2018-06-01T15:06:06.484Z,37.00
2018-06-01T15:08:34.760Z,16.53
2018-06-01T15:11:03.118Z,9.13
2018-06-01T15:13:31.488Z,12.53
2018-06-01T15:16:00.083Z,13.27
2018-06-01T15:18:28.359Z,9.90
2018-06-01T15:20:56.648Z,12.53
2018-06-01T15:23:24.924Z,11.20
2018-06-01T15:25:53.301Z,11.13
2018-06-01T15:28:21.579Z,10.33
2018-06-01T15:30:49.855Z,16.63
2018-06-01T15:33:18.211Z,10.17
2018-06-01T15:35:46.511Z,11.30
2018-06-01T15:38:14.782Z,10.10
2018-06-01T15:40:43.063Z,9.77
2018-06-01T15:43:11.368Z,11.67
2018-06-01T15:45:39.712Z,11.43
2018-06-01T15:48:08.090Z,13.50
2018-06-01T15:50:36.468Z,10.83
2018-06-01T15:53:04.847Z,11.23
2018-06-01T15:55:33.075Z,7.17
2018-06-01T15:58:01.471Z,19.40
2018-06-01T16:00:29.752Z,14.67
2018-06-01T16:02:57.988Z,12.30
2018-06-01T16:05:26.225Z,10.57
2018-06-01T16:07:54.579Z,16.70
2018-06-01T16:10:22.881Z,11.90
2018-06-01T16:12:51.259Z,8.20
2018-06-01T16:15:19.636Z,14.90
2018-06-01T16:17:47.880Z,16.93
2018-06-01T16:20:16.390Z,14.40
2018-06-01T16:22:44.667Z,15.43
2018-06-01T16:25:13.045Z,11.47
2018-06-01T16:27:41.302Z,12.53
2018-06-01T16:30:09.596Z,10.00
2018-06-01T16:32:37.872Z,12.13
2018-06-01T16:35:06.250Z,12.40
2018-06-01T16:37:34.503Z,15.80
2018-06-01T16:40:02.840Z,14.50
2018-06-01T16:42:31.156Z,9.60
2018-06-01T16:44:59.374Z,13.90
2018-06-01T16:47:27.616Z,12.27
2018-06-01T16:49:56.113Z,9.03
2018-06-01T16:52:24.388Z,10.33
2018-06-01T16:54:52.736Z,16.00
2018-06-01T16:57:22.165Z,11.30
2018-06-01T16:59:50.519Z,9.73
2018-06-01T17:02:18.752Z,9.27
2018-06-01T17:04:47.099Z,11.77
2018-06-01T17:07:15.474Z,10.47
2018-06-01T17:09:43.752Z,14.07
2018-06-01T17:12:11.983Z,11.53
2018-06-01T17:14:40.406Z,9.57
2018-06-01T17:17:08.663Z,11.20
2018-06-01T17:19:36.941Z,12.87
2018-06-01T17:22:05.440Z,12.23
2018-06-01T17:24:33.815Z,14.23
2018-06-01T17:27:02.192Z,13.02
2018-06-01T17:29:30.417Z,13.03
2018-06-01T17:31:58.780Z,15.60
2018-06-01T17:34:27.096Z,8.97
2018-06-01T17:36:55.373Z,14.73
2018-06-01T17:39:23.569Z,13.03
2018-06-01T17:41:51.932Z,12.03
2018-06-01T17:44:20.476Z,16.63
2018-06-01T17:46:48.806Z,8.90
2018-06-01T17:49:17.058Z,15.67
2018-06-01T17:51:45.362Z,19.17
2018-06-01T17:54:13.595Z,13.27
2018-06-01T17:56:41.914Z,12.63
2018-06-01T17:59:10.191Z,14.70
2018-06-01T18:01:38.564Z,12.87
2018-06-01T18:04:06.826Z,15.87
2018-06-01T18:06:35.221Z,9.80
2018-06-01T18:09:03.531Z,10.87
2018-06-01T18:11:31.846Z,15.33
2018-06-01T18:14:00.259Z,15.93
2018-06-01T18:16:28.607Z,17.40
2018-06-01T18:18:56.842Z,15.13
2018-06-01T18:21:25.064Z,14.70
2018-06-01T18:23:53.564Z,12.40
2018-06-01T18:26:21.833Z,12.03
2018-06-01T18:28:50.259Z,15.97
2018-06-01T18:31:18.591Z,11.57
2018-06-01T18:33:46.852Z,16.58
2018-06-01T18:36:15.114Z,26.07
2018-06-01T18:38:43.419Z,13.43
2018-06-01T18:41:11.771Z,13.13
2018-06-01T18:43:40.177Z,14.77
2018-06-01T18:46:08.555Z,14.33
2018-06-01T18:48:36.937Z,14.53
2018-06-01T18:51:05.413Z,13.97
2018-06-01T18:53:33.622Z,10.47
2018-06-01T18:56:01.969Z,12.60
2018-06-01T18:58:30.317Z,15.90
2018-06-01T19:00:58.522Z,17.63
2018-06-01T19:03:27.100Z,18.70
2018-06-01T19:05:55.475Z,16.27
2018-06-01T19:08:23.831Z,14.53
2018-06-01T19:10:52.081Z,18.03
2018-06-01T19:13:20.479Z,16.13
2018-06-01T19:15:48.710Z,11.70
2018-06-01T19:18:17.057Z,20.33
2018-06-01T19:20:45.334Z,17.30
2018-06-01T19:23:13.585Z,15.30
2018-06-01T19:25:42.159Z,17.63
2018-06-01T19:28:10.469Z,14.93
2018-06-01T19:30:38.752Z,13.43
2018-06-01T19:33:06.972Z,15.93
2018-06-01T19:35:35.296Z,16.10
2018-06-01T19:38:03.645Z,11.33
2018-06-01T19:40:32.055Z,17.00
2018-06-01T19:43:00.293Z,16.17
2018-06-01T19:45:28.709Z,13.17
2018-06-01T19:47:56.981Z,13.90
2018-06-01T19:50:25.231Z,13.30
2018-06-01T19:52:53.507Z,15.83
2018-06-01T19:55:21.807Z,14.47
2018-06-01T19:57:50.083Z,13.37
2018-06-01T20:00:18.309Z,21.00
2018-06-01T20:02:46.569Z,16.70
2018-06-01T20:05:14.790Z,22.30
2018-06-01T20:07:43.144Z,18.50
2018-06-01T20:10:11.466Z,16.37
2018-06-01T20:12:39.948Z,14.33
2018-06-01T20:15:08.303Z,22.03
2018-06-01T20:17:36.522Z,15.95
2018-06-01T20:20:04.876Z,15.97
2018-06-01T20:22:33.088Z,14.60
2018-06-01T20:25:01.551Z,16.20
2018-06-01T20:27:29.989Z,16.57
2018-06-01T20:29:58.286Z,15.23
2018-06-01T20:32:26.560Z,19.00
2018-06-01T20:34:54.937Z,14.17
2018-06-01T20:37:23.298Z,11.57
2018-06-01T20:39:51.693Z,15.00
2018-06-01T20:42:20.049Z,16.37
2018-06-01T20:44:48.555Z,14.50
2018-06-01T20:47:16.837Z,15.67
2018-06-01T20:49:45.209Z,13.50
2018-06-01T20:52:13.735Z,17.07
2018-06-01T20:54:42.067Z,21.80
2018-06-01T20:57:10.428Z,16.50
2018-06-01T20:59:38.823Z,18.33
2018-06-01T21:02:07.098Z,20.33
2018-06-01T21:04:35.463Z,22.93
2018-06-01T21:07:03.751Z,18.03
2018-06-01T21:09:31.995Z,18.30
2018-06-01T21:12:00.303Z,17.57
2018-06-01T21:14:28.578Z,18.60
2018-06-01T21:16:57.061Z,18.70
2018-06-01T21:19:25.421Z,18.73
2018-06-01T21:21:53.817Z,27.23
2018-06-01T21:24:22.173Z,22.03
2018-06-01T21:26:50.677Z,20.83
2018-06-01T21:29:19.052Z,19.00
2018-06-01T21:31:47.635Z,21.60
2018-06-01T21:34:15.900Z,19.70
2018-06-01T21:36:44.395Z,22.87
2018-06-01T21:39:12.875Z,23.00
2018-06-01T21:41:41.129Z,20.03
2018-06-01T21:44:09.528Z,16.77
2018-06-01T21:46:38.007Z,22.03
2018-06-01T21:49:06.458Z,22.83
2018-06-01T21:51:34.846Z,18.97
2018-06-01T21:54:03.143Z,13.53
2018-06-01T21:56:31.359Z,16.07
2018-06-01T21:58:59.694Z,22.70
2018-06-01T22:01:28.074Z,20.47
2018-06-01T22:03:56.426Z,19.93
2018-06-01T22:06:24.804Z,20.23
2018-06-01T22:08:53.043Z,20.07
2018-06-01T22:11:21.294Z,21.97
2018-06-01T22:13:49.756Z,21.53
2018-06-01T22:16:18.176Z,23.00
2018-06-01T22:18:46.489Z,20.13
2018-06-01T22:21:14.765Z,19.33
2018-06-01T22:23:43.169Z,15.80
2018-06-01T22:26:11.544Z,16.13
2018-06-01T22:28:39.822Z,12.90
2018-06-01T22:31:08.199Z,15.97
2018-06-01T22:33:36.781Z,12.70
2018-06-01T22:36:05.138Z,19.93
2018-06-01T22:38:33.642Z,17.10
2018-06-01T22:41:01.915Z,15.70
2018-06-01T22:43:30.218Z,12.97
2018-06-01T22:45:58.451Z,20.53
2018-06-01T22:48:26.847Z,16.03
2018-06-01T22:50:55.103Z,20.07
2018-06-01T22:53:23.472Z,17.17
2018-06-01T22:55:51.705Z,15.77
2018-06-01T22:58:20.050Z,17.47
2018-06-01T23:00:48.335Z,14.43
2018-06-01T23:03:16.576Z,21.43
2018-06-01T23:05:44.990Z,15.57
2018-06-01T23:08:13.222Z,15.23
2018-06-01T23:10:41.585Z,16.23
2018-06-01T23:13:09.988Z,17.93
2018-06-01T23:15:38.274Z,14.93
2018-06-01T23:18:06.584Z,19.63
2018-06-01T23:20:35.046Z,12.20
2018-06-01T23:23:03.325Z,17.97
2018-06-01T23:25:31.637Z,17.30
2018-06-01T23:28:00.067Z,15.83
2018-06-01T23:30:28.458Z,19.50
2018-06-01T23:32:56.724Z,17.90
2018-06-01T23:35:25.321Z,14.33
2018-06-01T23:37:53.579Z,16.07
2018-06-01T23:40:21.912Z,18.87
2018-06-01T23:42:50.146Z,18.10
2018-06-01T23:45:18.425Z,13.90
2018-06-01T23:47:46.773Z,14.33
2018-06-01T23:50:14.991Z,18.90
2018-06-01T23:52:43.327Z,23.60
2018-06-01T23:55:11.709Z,16.87
2018-06-01T23:57:40.091Z,16.10
